Time;durP1;ratioP1;P1;durP2;ratioP2;P2;SDS_P1;SDS_P2;PMS_P1;PMS_P2;Temp;Humidity;BMP_temperature;BMP_pressure;BME280_temperature;BME280_humidity;BME280_pressure;Samples;Min_cycle;Max_cycle;Signal;HPM_P1;HPM_P2
2021/01/08 00:01:46;;;;;;;1999.90;999.90;;;2.80;99.90;;;;;;5033580;28;20598;-66
2021/01/08 00:04:12;;;;;;;1999.90;999.90;;;2.80;99.90;;;;;;5033615;28;20641;-65
2021/01/08 00:06:38;;;;;;;1999.90;999.90;;;2.80;99.90;;;;;;5033479;28;20616;-65
2021/01/08 00:09:04;;;;;;;1999.90;999.90;;;2.80;99.90;;;;;;5033224;28;20457;-65
2021/01/08 00:11:29;;;;;;;1999.90;999.90;;;2.80;99.90;;;;;;5033360;28;20427;-66
2021/01/08 00:13:55;;;;;;;1999.90;999.90;;;2.70;99.90;;;;;;5033272;28;20403;-66
2021/01/08 00:16:21;;;;;;;1999.90;999.90;;;2.70;99.90;;;;;;5033282;28;20164;-65
2021/01/08 00:18:47;;;;;;;1999.90;999.90;;;2.70;99.90;;;;;;5033042;28;20168;-66
2021/01/08 00:21:13;;;;;;;1999.90;999.90;;;2.70;99.90;;;;;;5033057;28;20222;-66
2021/01/08 00:23:40;;;;;;;1999.90;999.90;;;2.70;99.90;;;;;;5033167;28;20399;-66
2021/01/08 00:26:06;;;;;;;1999.90;999.90;;;2.70;99.90;;;;;;5033032;28;20717;-65
2021/01/08 00:28:31;;;;;;;1999.90;999.90;;;2.60;99.90;;;;;;5032881;28;20275;-66
2021/01/08 00:30:57;;;;;;;1999.90;999.90;;;2.70;99.90;;;;;;5032973;28;20180;-66
2021/01/08 00:33:23;;;;;;;1999.90;999.90;;;2.70;99.90;;;;;;5032953;28;20407;-65
2021/01/08 00:35:48;;;;;;;1999.90;999.90;;;2.70;99.90;;;;;;5033054;28;20259;-66
2021/01/08 00:38:14;;;;;;;1999.90;999.90;;;2.70;99.90;;;;;;5032648;28;20172;-66
2021/01/08 00:40:40;;;;;;;1999.90;999.90;;;2.70;99.90;;;;;;5032746;28;20224;-66
2021/01/08 00:43:05;;;;;;;1999.90;999.90;;;2.70;99.90;;;;;;5032762;28;20721;-66
2021/01/08 00:45:32;;;;;;;1999.90;999.90;;;2.60;99.90;;;;;;5032828;28;20193;-66
2021/01/08 00:47:58;;;;;;;1999.90;999.90;;;2.60;99.90;;;;;;5032796;28;20247;-67
2021/01/08 00:50:24;;;;;;;1999.90;999.90;;;2.60;99.90;;;;;;5032397;28;20259;-66
2021/01/08 00:52:49;;;;;;;1999.90;999.90;;;2.60;99.90;;;;;;5031642;28;20778;-66
2021/01/08 00:55:15;;;;;;;1999.90;999.90;;;2.60;99.90;;;;;;5031563;28;20172;-65
2021/01/08 00:57:40;;;;;;;1999.90;999.90;;;2.60;99.90;;;;;;5031770;28;20250;-66
2021/01/08 01:00:07;;;;;;;1999.90;999.90;;;2.60;99.90;;;;;;5031144;28;20204;-66
2021/01/08 01:02:33;;;;;;;1999.90;999.90;;;2.60;99.90;;;;;;5031497;28;20188;-66
2021/01/08 01:04:59;;;;;;;1999.90;999.90;;;2.60;99.90;;;;;;5031469;28;20179;-65
2021/01/08 01:07:25;;;;;;;1999.90;999.90;;;2.50;99.90;;;;;;5031598;28;20391;-65
2021/01/08 01:09:51;;;;;;;1999.90;999.90;;;2.50;99.90;;;;;;5031381;28;20238;-65
2021/01/08 01:12:16;;;;;;;1999.90;999.90;;;2.50;99.90;;;;;;5031311;28;20188;-65
2021/01/08 01:14:43;;;;;;;1999.90;999.90;;;2.40;99.90;;;;;;5031342;28;20218;-65
2021/01/08 01:17:08;;;;;;;1999.90;999.90;;;2.50;99.90;;;;;;5031320;28;20177;-66
2021/01/08 01:19:34;;;;;;;1999.90;999.90;;;2.40;99.90;;;;;;5030875;28;20268;-66
2021/01/08 01:22:00;;;;;;;1999.90;999.90;;;2.50;99.90;;;;;;5031133;28;20186;-64
2021/01/08 01:24:25;;;;;;;1999.90;999.90;;;2.50;99.90;;;;;;5030524;28;20164;-66
2021/01/08 01:26:56;;;;;;;1999.90;999.90;;;2.40;99.90;;;;;;5031125;28;20247;-65
2021/01/08 01:29:26;;;;;;;1999.90;999.90;;;2.40;99.90;;;;;;5030882;28;20172;-65
2021/01/08 01:31:52;;;;;;;1999.90;999.90;;;2.40;99.90;;;;;;5030971;28;20196;-65
2021/01/08 01:34:19;;;;;;;1999.90;999.90;;;2.30;99.90;;;;;;5030893;28;20169;-65
2021/01/08 01:36:45;;;;;;;1999.90;999.90;;;2.30;99.90;;;;;;5030965;28;20179;-65
2021/01/08 01:39:12;;;;;;;1999.90;999.90;;;2.30;99.90;;;;;;5030556;28;20207;-64
2021/01/08 01:41:39;;;;;;;1999.90;999.90;;;2.30;99.90;;;;;;5030825;28;20199;-64
2021/01/08 01:44:05;;;;;;;1999.90;999.90;;;2.20;99.90;;;;;;5030829;28;20191;-64
2021/01/08 01:46:31;;;;;;;1999.90;999.90;;;2.20;99.90;;;;;;5030820;28;20230;-65
2021/01/08 01:48:57;;;;;;;1999.90;999.90;;;2.20;99.90;;;;;;5030531;28;20576;-65
2021/01/08 01:51:23;;;;;;;1999.90;999.90;;;2.20;99.90;;;;;;5010489;28;586419;-65
2021/01/08 01:53:49;;;;;;;1999.90;999.90;;;2.20;99.90;;;;;;5031439;28;20608;-65
2021/01/08 01:56:15;;;;;;;1999.90;999.90;;;2.20;99.90;;;;;;5031362;28;20562;-64
2021/01/08 01:58:41;;;;;;;1999.90;999.90;;;2.20;99.90;;;;;;5031171;28;20259;-65
2021/01/08 02:01:07;;;;;;;1999.90;999.90;;;2.20;99.90;;;;;;5031228;28;20699;-64
2021/01/08 02:03:36;;;;;;;1999.90;999.90;;;2.20;99.90;;;;;;5031331;28;20234;-65
2021/01/08 02:06:06;;;;;;;1999.90;999.90;;;2.20;99.90;;;;;;5031267;28;20399;-64
2021/01/08 02:08:32;;;;;;;1999.90;999.90;;;2.20;99.90;;;;;;5030970;28;20210;-65
2021/01/08 02:11:09;;;;;;;1999.90;999.90;;;2.20;99.90;;;;;;5031154;28;20597;-64
2021/01/08 02:13:53;;;;;;;1999.90;999.90;;;2.20;99.90;;;;;;5031208;28;20636;-65
2021/01/08 02:16:21;;;;;;;1999.90;999.90;;;2.30;99.90;;;;;;5031163;28;20179;-64
2021/01/08 02:18:50;;;;;;;1999.90;999.90;;;2.30;99.90;;;;;;5030731;28;20166;-65
2021/01/08 02:21:24;;;;;;;1999.90;999.90;;;2.30;99.90;;;;;;5030894;28;20212;-65
2021/01/08 02:24:15;;;;;;;1999.90;999.90;;;2.30;99.90;;;;;;5031308;28;20573;-65
2021/01/08 02:26:42;;;;;;;1999.90;999.90;;;2.20;99.90;;;;;;5031056;28;20172;-66
2021/01/08 02:29:10;;;;;;;1999.90;999.90;;;2.20;99.90;;;;;;5030707;28;20160;-65
2021/01/08 02:31:36;;;;;;;1999.90;999.90;;;2.20;99.90;;;;;;5030900;28;20188;-65
2021/01/08 02:34:02;;;;;;;1999.90;999.90;;;2.20;99.90;;;;;;5030857;28;20226;-65
2021/01/08 02:36:28;;;;;;;1999.90;999.90;;;2.20;99.90;;;;;;5030002;28;20638;-64
2021/01/08 02:38:55;;;;;;;1999.90;999.90;;;2.20;99.90;;;;;;5030619;28;20411;-65
2021/01/08 02:41:23;;;;;;;1999.90;999.90;;;2.20;99.90;;;;;;5030714;28;20215;-65
2021/01/08 02:43:50;;;;;;;1999.90;999.90;;;2.20;99.90;;;;;;5030830;28;20164;-66
2021/01/08 02:46:17;;;;;;;1999.90;999.90;;;2.20;99.90;;;;;;5030778;28;20230;-65
2021/01/08 02:48:42;;;;;;;1999.90;999.90;;;2.10;99.90;;;;;;5030577;28;20179;-65
2021/01/08 02:51:08;;;;;;;1999.90;999.90;;;2.20;99.90;;;;;;5030727;28;20212;-65
2021/01/08 02:53:38;;;;;;;1999.90;999.90;;;2.10;99.90;;;;;;5031106;28;20541;-67
2021/01/08 02:56:19;;;;;;;1999.90;999.90;;;2.10;99.90;;;;;;5030978;28;20287;-67
2021/01/08 02:58:46;;;;;;;1999.90;999.90;;;2.10;99.90;;;;;;5030660;28;20172;-67
2021/01/08 03:01:13;;;;;;;1999.90;999.90;;;2.00;99.90;;;;;;5030533;28;20629;-68
2021/01/08 03:03:39;;;;;;;1999.90;999.90;;;2.00;99.90;;;;;;5030640;28;20538;-67
2021/01/08 03:06:06;;;;;;;1999.90;999.90;;;1.90;99.90;;;;;;5030694;28;20168;-67
2021/01/08 03:08:32;;;;;;;1999.90;999.90;;;1.90;99.90;;;;;;5030369;28;20168;-67
2021/01/08 03:10:59;;;;;;;1999.90;999.90;;;1.90;99.90;;;;;;5030621;28;20238;-67
2021/01/08 03:13:30;;;;;;;1999.90;999.90;;;1.90;99.90;;;;;;5030708;28;20654;-68
2021/01/08 03:15:55;;;;;;;1999.90;999.90;;;1.80;99.90;;;;;;5030570;28;20173;-67
2021/01/08 03:18:21;;;;;;;1999.90;999.90;;;1.80;99.90;;;;;;5030297;28;20176;-66
2021/01/08 03:20:46;;;;;;;1999.90;999.90;;;1.80;99.90;;;;;;5030371;28;20666;-66
2021/01/08 03:23:12;;;;;;;1999.90;999.90;;;1.80;99.90;;;;;;5030542;28;20169;-66
2021/01/08 03:25:37;;;;;;;1999.90;999.90;;;1.80;99.90;;;;;;5030542;28;20184;-66
2021/01/08 03:28:03;;;;;;;1999.90;999.90;;;1.80;99.90;;;;;;5030433;28;20247;-66
2021/01/08 03:30:29;;;;;;;1999.90;999.90;;;1.80;99.90;;;;;;5030302;28;20168;-66
2021/01/08 03:32:54;;;;;;;1999.90;999.90;;;1.80;99.90;;;;;;5030380;28;20191;-66
2021/01/08 03:35:20;;;;;;;1999.90;999.90;;;1.90;99.90;;;;;;5030592;28;20207;-66
2021/01/08 03:37:46;;;;;;;1999.90;999.90;;;1.90;99.90;;;;;;5030495;28;20175;-67
2021/01/08 03:40:12;;;;;;;1999.90;999.90;;;1.90;99.90;;;;;;5030145;28;20192;-67
2021/01/08 03:42:37;;;;;;;1999.90;999.90;;;1.90;99.90;;;;;;5030452;28;20277;-66
2021/01/08 03:45:04;;;;;;;1999.90;999.90;;;1.90;99.90;;;;;;5030295;28;20406;-67
2021/01/08 03:47:30;;;;;;;1999.90;999.90;;;2.00;99.90;;;;;;5030639;28;20231;-66
2021/01/08 03:49:55;;;;;;;1999.90;999.90;;;2.00;99.90;;;;;;5033715;28;20608;-67
2021/01/08 03:52:21;;;;;;;1999.90;999.90;;;1.90;99.90;;;;;;5033596;28;20204;-67
2021/01/08 03:54:46;;;;;;;1999.90;999.90;;;1.90;99.90;;;;;;5033877;28;20172;-67
2021/01/08 03:57:12;;;;;;;1999.90;999.90;;;1.90;99.90;;;;;;5033659;28;20173;-66
2021/01/08 03:59:38;;;;;;;1999.90;999.90;;;1.90;99.90;;;;;;5033550;28;20188;-66
2021/01/08 04:02:03;;;;;;;1999.90;999.90;;;1.90;99.90;;;;;;5033523;28;20184;-66
2021/01/08 04:04:29;;;;;;;1999.90;999.90;;;1.90;99.90;;;;;;5033657;28;20590;-67
2021/01/08 04:06:54;;;;;;;1999.90;999.90;;;1.90;99.90;;;;;;5033604;28;20213;-67
2021/01/08 04:09:20;;;;;;;1999.90;999.90;;;1.90;99.90;;;;;;5033362;28;20164;-66
2021/01/08 04:11:46;;;;;;;1999.90;999.90;;;1.90;99.90;;;;;;5033630;28;20192;-66
2021/01/08 04:14:12;;;;;;;1999.90;999.90;;;1.90;99.90;;;;;;5033545;28;20657;-68
2021/01/08 04:16:39;;;;;;;1999.90;999.90;;;1.90;99.90;;;;;;5033281;28;20177;-68
2021/01/08 04:19:05;;;;;;;1999.90;999.90;;;2.00;99.90;;;;;;5033009;28;20636;-68
2021/01/08 04:21:31;;;;;;;1999.90;999.90;;;2.00;99.90;;;;;;5033147;28;20224;-68
2021/01/08 04:23:56;;;;;;;1999.90;999.90;;;2.10;99.90;;;;;;5033238;28;20169;-68
2021/01/08 04:26:22;;;;;;;1999.90;999.90;;;2.00;99.90;;;;;;5033141;28;20829;-68
2021/01/08 04:28:48;;;;;;;1999.90;999.90;;;2.00;99.90;;;;;;5032890;28;20168;-68
2021/01/08 04:31:14;;;;;;;1999.90;999.90;;;2.00;99.90;;;;;;5033006;28;20549;-68
2021/01/08 04:33:40;;;;;;;1999.90;999.90;;;2.00;99.90;;;;;;5033169;28;20179;-68
2021/01/08 04:36:08;;;;;;;1999.90;999.90;;;1.90;99.90;;;;;;5033483;28;20174;-68
2021/01/08 04:38:34;;;;;;;1999.90;999.90;;;1.90;99.90;;;;;;5032954;28;20196;-68
2021/01/08 04:41:00;;;;;;;1999.90;999.90;;;1.90;99.90;;;;;;5032792;28;20204;-68
2021/01/08 04:43:27;;;;;;;1999.90;999.90;;;1.90;99.90;;;;;;5032870;28;20588;-68
2021/01/08 04:45:52;;;;;;;1999.90;999.90;;;1.90;99.90;;;;;;5032674;28;20262;-67
2021/01/08 04:48:18;;;;;;;1999.90;999.90;;;2.00;99.90;;;;;;5032616;28;20203;-67
2021/01/08 04:50:45;;;;;;;1999.90;999.90;;;2.00;99.90;;;;;;5032586;28;20164;-67
2021/01/08 04:53:12;;;;;;;1999.90;999.90;;;2.00;99.90;;;;;;5032735;28;20415;-67
2021/01/08 04:55:38;;;;;;;1999.90;999.90;;;2.00;99.90;;;;;;5032774;28;20176;-67
2021/01/08 04:58:09;;;;;;;1999.90;999.90;;;2.00;99.90;;;;;;5032609;28;20172;-67
2021/01/08 05:00:35;;;;;;;1999.90;999.90;;;2.00;99.90;;;;;;5031528;28;20188;-67
2021/01/08 05:03:01;;;;;;;1999.90;999.90;;;2.00;99.90;;;;;;5032501;28;20196;-67
2021/01/08 05:05:27;;;;;;;1999.90;999.90;;;2.00;99.90;;;;;;5032451;28;20407;-67
2021/01/08 05:07:52;;;;;;;1999.90;999.90;;;1.90;99.90;;;;;;5032442;28;20747;-67
2021/01/08 05:10:19;;;;;;;1999.90;999.90;;;1.90;99.90;;;;;;5032089;28;20174;-67
2021/01/08 05:12:44;;;;;;;1999.90;999.90;;;1.90;99.90;;;;;;5032198;28;20192;-68
2021/01/08 05:15:16;;;;;;;1999.90;999.90;;;2.00;99.90;;;;;;5032170;28;20709;-68
2021/01/08 05:17:43;;;;;;;1999.90;999.90;;;2.00;99.90;;;;;;5032191;28;20179;-67
2021/01/08 05:20:12;;;;;;;1999.90;999.90;;;2.00;99.90;;;;;;5031794;28;20193;-67
2021/01/08 05:22:39;;;;;;;1999.90;999.90;;;2.10;99.90;;;;;;5032006;28;20271;-67
2021/01/08 05:25:11;;;;;;;1999.90;999.90;;;2.10;99.90;;;;;;5032159;28;20560;-67
2021/01/08 05:27:38;;;;;;;1999.90;999.90;;;2.10;99.90;;;;;;5031992;28;20709;-67
2021/01/08 05:30:17;;;;;;;1999.90;999.90;;;2.00;99.90;;;;;;5031643;28;20183;-67
2021/01/08 05:32:44;;;;;;;1999.90;999.90;;;2.00;99.90;;;;;;5031830;28;20567;-67
2021/01/08 05:35:14;;;;;;;1999.90;999.90;;;2.00;99.90;;;;;;5032013;28;20176;-67
2021/01/08 05:37:45;;;;;;;1999.90;999.90;;;1.90;99.90;;;;;;5031857;28;20177;-67
2021/01/08 05:40:12;;;;;;;1999.90;999.90;;;1.90;99.90;;;;;;5031463;28;20196;-67
2021/01/08 05:42:53;;;;;;;1999.90;999.90;;;1.90;99.90;;;;;;5031653;28;20194;-67
2021/01/08 05:45:19;;;;;;;1999.90;999.90;;;1.90;99.90;;;;;;5031640;28;20175;-67
2021/01/08 05:47:45;;;;;;;1999.90;999.90;;;1.90;99.90;;;;;;5031770;28;20169;-67
2021/01/08 05:50:11;;;;;;;1999.90;999.90;;;1.90;99.90;;;;;;5031359;28;20915;-67
2021/01/08 05:52:42;;;;;;;1999.90;999.90;;;1.90;99.90;;;;;;5031403;28;20447;-67
2021/01/08 05:55:14;;;;;;;1999.90;999.90;;;1.90;99.90;;;;;;5031612;28;20264;-67
2021/01/08 05:57:43;;;;;;;1999.90;999.90;;;1.90;99.90;;;;;;5031543;28;20176;-67
2021/01/08 06:00:09;;;;;;;1999.90;999.90;;;1.90;99.90;;;;;;5031100;28;20254;-67
2021/01/08 06:02:36;;;;;;;1999.90;999.90;;;1.80;99.90;;;;;;5031364;28;20276;-67
2021/01/08 06:05:05;;;;;;;1999.90;999.90;;;1.90;99.90;;;;;;5031246;28;20176;-67
2021/01/08 06:07:36;;;;;;;1999.90;999.90;;;1.90;99.90;;;;;;5031382;28;20171;-67
2021/01/08 06:10:04;;;;;;;1999.90;999.90;;;1.90;99.90;;;;;;5031057;28;20200;-67
2021/01/08 06:12:38;;;;;;;1999.90;999.90;;;1.90;99.90;;;;;;5031013;28;20188;-67
2021/01/08 06:15:06;;;;;;;1999.90;999.90;;;1.90;99.90;;;;;;5031296;28;20268;-67
2021/01/08 06:17:33;;;;;;;1999.90;999.90;;;2.00;99.90;;;;;;5031257;28;20172;-67
2021/01/08 06:20:02;;;;;;;1999.90;999.90;;;1.90;99.90;;;;;;5030959;28;20195;-67
2021/01/08 06:22:39;;;;;;;1999.90;999.90;;;1.90;99.90;;;;;;5031066;28;20674;-68
2021/01/08 06:25:06;;;;;;;1999.90;999.90;;;1.90;99.90;;;;;;5031098;28;20197;-69
2021/01/08 06:27:33;;;;;;;1999.90;999.90;;;1.90;99.90;;;;;;5031055;28;20790;-68
2021/01/08 06:30:01;;;;;;;1999.90;999.90;;;1.90;99.90;;;;;;5030766;28;20168;-67
2021/01/08 06:32:31;;;;;;;1999.90;999.90;;;1.90;99.90;;;;;;5030833;28;20188;-67
2021/01/08 06:35:09;;;;;;;1999.90;999.90;;;2.00;99.90;;;;;;5030933;28;20645;-68
2021/01/08 06:37:40;;;;;;;1999.90;999.90;;;1.90;99.90;;;;;;5030975;28;20176;-67
2021/01/08 06:40:09;;;;;;;1999.90;999.90;;;1.90;99.90;;;;;;5031093;28;20191;-68
2021/01/08 06:42:45;;;;;;;1999.90;999.90;;;1.90;99.90;;;;;;5030795;28;20218;-68
2021/01/08 06:45:13;;;;;;;1999.90;999.90;;;1.80;99.90;;;;;;5030844;28;20642;-67
2021/01/08 06:47:43;;;;;;;1999.90;999.90;;;1.90;99.90;;;;;;5030746;28;20180;-67
2021/01/08 06:50:15;;;;;;;1999.90;999.90;;;1.90;99.90;;;;;;5030539;28;20164;-67
2021/01/08 06:52:44;;;;;;;1999.90;999.90;;;1.90;99.90;;;;;;5030738;28;20230;-67
2021/01/08 06:55:14;;;;;;;1999.90;999.90;;;1.90;99.90;;;;;;5030816;28;20187;-67
2021/01/08 06:58:06;;;;;;;1999.90;999.90;;;1.90;99.90;;;;;;5030678;28;20181;-68
2021/01/08 07:00:33;;;;;;;1999.90;999.90;;;1.90;99.90;;;;;;5027735;28;20215;-68
2021/01/08 07:03:06;;;;;;;1999.90;999.90;;;1.90;99.90;;;;;;5030614;28;20192;-68
2021/01/08 07:05:32;;;;;;;1999.90;999.90;;;1.90;99.90;;;;;;5030614;28;20175;-68
2021/01/08 07:07:58;;;;;;;1999.90;999.90;;;1.90;99.90;;;;;;5030657;28;20180;-67
2021/01/08 07:10:23;;;;;;;1999.90;999.90;;;1.90;99.90;;;;;;5030263;28;20200;-69
2021/01/08 07:12:55;;;;;;;1999.90;999.90;;;1.90;99.90;;;;;;5030532;28;20246;-68
2021/01/08 07:15:21;;;;;;;1999.90;999.90;;;1.90;99.90;;;;;;5030551;28;20211;-68
2021/01/08 07:17:54;;;;;;;1999.90;999.90;;;1.90;99.90;;;;;;5030578;28;20204;-68
2021/01/08 07:20:20;;;;;;;1999.90;999.90;;;1.90;99.90;;;;;;5030201;28;20447;-68
2021/01/08 07:22:51;;;;;;;1999.90;999.90;;;1.90;99.90;;;;;;5031249;28;20192;-67
2021/01/08 07:25:20;;;;;;;1999.90;999.90;;;1.90;99.90;;;;;;5034364;28;20165;-69
2021/01/08 07:27:46;;;;;;;1999.90;999.90;;;1.90;99.90;;;;;;5034231;28;20583;-69
2021/01/08 07:30:13;;;;;;;1999.90;999.90;;;2.00;99.90;;;;;;5034009;28;20221;-68
2021/01/08 07:32:42;;;;;;;1999.90;999.90;;;2.00;99.90;;;;;;5034235;28;20181;-67
2021/01/08 07:35:30;;;;;;;1999.90;999.90;;;2.00;99.90;;;;;;5034188;28;20572;-67
2021/01/08 07:37:56;;;;;;;1999.90;999.90;;;2.00;99.90;;;;;;5034165;28;20701;-68
2021/01/08 07:40:22;;;;;;;1999.90;999.90;;;1.90;99.90;;;;;;5033733;28;20287;-68
2021/01/08 07:42:55;;;;;;;1999.90;999.90;;;1.90;99.90;;;;;;5033993;28;20188;-67
2021/01/08 07:45:21;;;;;;;1999.90;999.90;;;1.90;99.90;;;;;;5033934;28;20195;-67
2021/01/08 07:47:47;;;;;;;1999.90;999.90;;;1.80;99.90;;;;;;5033900;28;20196;-67
2021/01/08 07:50:14;;;;;;;1999.90;999.90;;;1.90;99.90;;;;;;5033602;28;20173;-67
2021/01/08 07:52:42;;;;;;;1999.90;999.90;;;1.90;99.90;;;;;;5033633;28;20215;-66
2021/01/08 07:55:11;;;;;;;1999.90;999.90;;;1.80;99.90;;;;;;5033824;28;20168;-67
2021/01/08 07:58:03;;;;;;;1999.90;999.90;;;1.80;99.90;;;;;;5033739;28;20168;-67
2021/01/08 08:00:31;;;;;;;1999.90;999.90;;;1.80;99.90;;;;;;5033400;28;20184;-67
2021/01/08 08:02:59;;;;;;;1999.90;999.90;;;1.80;99.90;;;;;;5033880;28;20203;-66
2021/01/08 08:05:30;;;;;;;1999.90;999.90;;;1.80;99.90;;;;;;5033731;28;20168;-67
2021/01/08 08:08:01;;;;;;;1999.90;999.90;;;1.80;99.90;;;;;;5033572;28;20196;-66
2021/01/08 08:10:29;;;;;;;1999.90;999.90;;;1.80;99.90;;;;;;5033302;28;20171;-67
2021/01/08 08:12:55;;;;;;;1999.90;999.90;;;1.90;99.90;;;;;;5033301;28;20196;-67
2021/01/08 08:15:21;;;;;;;1999.90;999.90;;;1.90;99.90;;;;;;5033315;28;20638;-67
2021/01/08 08:17:48;;;;;;;1999.90;999.90;;;1.90;99.90;;;;;;5033377;28;20657;-67
2021/01/08 08:20:23;;;;;;;1999.90;999.90;;;1.80;99.90;;;;;;5033086;28;20200;-67
2021/01/08 08:22:53;;;;;;;1999.90;999.90;;;1.90;99.90;;;;;;5033231;28;20385;-68
2021/01/08 08:25:31;;;;;;;1999.90;999.90;;;1.90;99.90;;;;;;5033140;28;20172;-68
2021/01/08 08:27:59;;;;;;;1999.90;999.90;;;2.00;99.90;;;;;;5033155;28;20506;-68
2021/01/08 08:30:25;;;;;;;1999.90;999.90;;;2.00;99.90;;;;;;5032850;28;20172;-68
2021/01/08 08:32:52;;;;;;;1999.90;999.90;;;2.00;99.90;;;;;;5033006;28;20196;-68
2021/01/08 08:35:18;;;;;;;1999.90;999.90;;;2.10;99.90;;;;;;5033109;28;20184;-68
2021/01/08 08:37:47;;;;;;;1999.90;999.90;;;2.10;99.90;;;;;;5032914;28;20176;-68
2021/01/08 08:40:13;;;;;;;1999.90;999.90;;;2.10;99.90;;;;;;5032515;28;20199;-68
2021/01/08 08:42:40;;;;;;;1999.90;999.90;;;2.00;99.90;;;;;;5032724;28;20200;-68
2021/01/08 08:45:18;;;;;;;1999.90;999.90;;;2.10;99.90;;;;;;5032824;28;20171;-68
2021/01/08 08:47:47;;;;;;;1999.90;999.90;;;2.10;99.90;;;;;;5032809;28;20169;-68
2021/01/08 08:50:15;;;;;;;1999.90;999.90;;;2.00;99.90;;;;;;5032458;28;20165;-68
2021/01/08 08:52:41;;;;;;;1999.90;999.90;;;2.10;99.90;;;;;;5032467;28;20581;-68
2021/01/08 08:55:07;;;;;;;1999.90;999.90;;;2.20;99.90;;;;;;5032643;28;20168;-68
2021/01/08 08:57:33;;;;;;;1999.90;999.90;;;2.10;99.90;;;;;;5032501;28;20414;-68
2021/01/08 08:59:58;;;;;;;1999.90;999.90;;;2.00;99.90;;;;;;5032221;28;20184;-68
2021/01/08 09:02:25;;;;;;;1999.90;999.90;;;2.00;99.90;;;;;;5032367;28;20192;-68
2021/01/08 09:04:58;;;;;;;1999.90;999.90;;;2.00;99.90;;;;;;5032372;28;20246;-69
2021/01/08 09:07:40;;;;;;;1999.90;999.90;;;2.10;99.90;;;;;;5032435;28;20556;-68
2021/01/08 09:10:13;;;;;;;1999.90;999.90;;;2.10;99.90;;;;;;5032089;28;20181;-68
2021/01/08 09:12:56;;;;;;;1999.90;999.90;;;2.10;99.90;;;;;;5032411;28;20586;-67
2021/01/08 09:15:29;;;;;;;1999.90;999.90;;;2.10;99.90;;;;;;5032269;28;20361;-69
2021/01/08 09:18:01;;;;;;;1999.90;999.90;;;2.10;99.90;;;;;;5032272;28;20223;-67
2021/01/08 09:20:28;;;;;;;1999.90;999.90;;;2.10;99.90;;;;;;5031884;28;20200;-67
2021/01/08 09:22:55;;;;;;;1999.90;999.90;;;2.20;99.90;;;;;;5032108;28;20184;-68
2021/01/08 09:25:22;;;;;;;1999.90;999.90;;;2.10;99.90;;;;;;5032125;28;20175;-67
2021/01/08 09:27:48;;;;;;;1999.90;999.90;;;2.10;99.90;;;;;;5032010;28;20172;-68
2021/01/08 09:30:15;;;;;;;1999.90;999.90;;;2.10;99.90;;;;;;5031793;28;20172;-67
2021/01/08 09:32:40;;;;;;;1999.90;999.90;;;2.10;99.90;;;;;;5031977;28;20200;-68
2021/01/08 09:35:08;;;;;;;1999.90;999.90;;;2.10;99.90;;;;;;5031982;28;20537;-68
2021/01/08 09:37:51;;;;;;;1999.90;999.90;;;2.10;99.90;;;;;;5032012;28;20172;-68
2021/01/08 09:40:19;;;;;;;1999.90;999.90;;;2.00;99.90;;;;;;5031860;28;20208;-67
2021/01/08 09:42:45;;;;;;;1999.90;999.90;;;2.00;99.90;;;;;;5031968;28;20184;-68
2021/01/08 09:45:21;;;;;;;1999.90;999.90;;;2.00;99.90;;;;;;5031502;28;20165;-67
2021/01/08 09:47:47;;;;;;;1999.90;999.90;;;2.10;99.90;;;;;;5031798;28;20175;-68
2021/01/08 09:50:26;;;;;;;1999.90;999.90;;;2.20;99.90;;;;;;5031466;28;20176;-67
2021/01/08 09:52:58;;;;;;;1999.90;999.90;;;2.30;99.90;;;;;;5031377;28;20442;-70
2021/01/08 09:55:31;;;;;;;1999.90;999.90;;;2.40;99.90;;;;;;5031743;28;20172;-69
2021/01/08 09:57:58;;;;;;;1999.90;999.90;;;2.50;99.90;;;;;;5028867;28;20172;-67
2021/01/08 10:00:33;;;;;;;1999.90;999.90;;;2.50;99.90;;;;;;5029696;28;20204;-67
2021/01/08 10:02:59;;;;;;;1999.90;999.90;;;2.50;99.90;;;;;;5030461;28;20187;-67
2021/01/08 10:05:30;;;;;;;1999.90;999.90;;;2.70;99.90;;;;;;5030733;28;20560;-67
2021/01/08 10:07:57;;;;;;;1999.90;999.90;;;2.80;99.90;;;;;;5030505;28;20658;-69
2021/01/08 10:10:28;;;;;;;1999.90;999.90;;;2.90;99.90;;;;;;5030480;28;20176;-68
2021/01/08 10:12:56;;;;;;;1999.90;999.90;;;2.90;99.90;;;;;;5030692;28;20196;-67
2021/01/08 10:15:43;;;;;;;1999.90;999.90;;;3.00;99.90;;;;;;5030653;28;20172;-67
2021/01/08 10:18:21;;;;;;;1999.90;999.90;;;3.00;99.90;;;;;;5030823;28;20176;-71
2021/01/08 10:21:03;;;;;;;1999.90;999.90;;;3.00;99.90;;;;;;5030531;28;20208;-69
2021/01/08 10:23:29;;;;;;;1999.90;999.90;;;3.00;99.90;;;;;;5030803;28;20665;-68
2021/01/08 10:26:12;;;;;;;1999.90;999.90;;;3.00;99.90;;;;;;5030714;28;20168;-69
2021/01/08 10:28:54;;;;;;;1999.90;999.90;;;3.10;99.90;;;;;;5030212;28;20179;-68
2021/01/08 10:31:21;;;;;;;1999.90;999.90;;;3.20;99.90;;;;;;5030779;28;20196;-67
2021/01/08 10:33:47;;;;;;;1999.90;999.90;;;3.10;99.90;;;;;;5030332;28;20171;-68
2021/01/08 10:36:14;;;;;;;1999.90;999.90;;;3.20;99.90;;;;;;5031255;28;20183;-67
2021/01/08 10:38:40;;;;;;;1999.90;999.90;;;3.20;99.90;;;;;;5030279;28;20180;-67
2021/01/08 10:41:06;;;;;;;1999.90;999.90;;;3.20;99.90;;;;;;5030496;28;20707;-67
2021/01/08 10:43:34;;;;;;;1999.90;999.90;;;3.20;99.90;;;;;;5030494;28;20247;-67
2021/01/08 10:46:00;;;;;;;1999.90;999.90;;;3.20;99.90;;;;;;5027692;28;20654;-67
2021/01/08 10:48:26;;;;;;;1999.90;999.90;;;3.20;99.90;;;;;;5028732;28;20176;-67
2021/01/08 10:50:51;;;;;;;1999.90;999.90;;;3.20;99.90;;;;;;5029021;28;20179;-67
2021/01/08 10:53:17;;;;;;;1999.90;999.90;;;3.20;99.90;;;;;;5028866;28;20690;-67
2021/01/08 10:55:49;;;;;;;1999.90;999.90;;;3.20;99.90;;;;;;5029029;28;20168;-67
2021/01/08 10:58:16;;;;;;;1999.90;999.90;;;3.10;99.90;;;;;;5030735;28;20415;-65
2021/01/08 11:00:48;;;;;;;1999.90;999.90;;;3.10;99.90;;;;;;5032738;28;20685;-65
2021/01/08 11:03:14;;;;;;;1999.90;999.90;;;3.00;99.90;;;;;;5033629;28;20164;-65
2021/01/08 11:05:41;;;;;;;1999.90;999.90;;;3.00;99.90;;;;;;5033039;28;20173;-65
2021/01/08 11:08:07;;;;;;;1999.90;999.90;;;3.00;99.90;;;;;;5032239;28;20169;-65
2021/01/08 11:10:34;;;;;;;1999.90;999.90;;;3.00;99.90;;;;;;5032363;28;20203;-65
2021/01/08 11:13:00;;;;;;;1999.90;999.90;;;3.00;99.90;;;;;;5033484;28;20188;-65
2021/01/08 11:15:25;;;;;;;1999.90;999.90;;;3.00;99.90;;;;;;5033158;28;20182;-65
2021/01/08 11:17:51;;;;;;;1999.90;999.90;;;3.00;99.90;;;;;;5033646;28;20165;-65
2021/01/08 11:20:17;;;;;;;1999.90;999.90;;;3.10;99.90;;;;;;5032943;28;20242;-66
2021/01/08 11:22:42;;;;;;;1999.90;999.90;;;3.10;99.90;;;;;;5033283;28;20184;-65
2021/01/08 11:25:08;;;;;;;1999.90;999.90;;;3.10;99.90;;;;;;5033277;28;20287;-65
2021/01/08 11:27:34;;;;;;;1999.90;999.90;;;3.10;99.90;;;;;;5033378;28;20172;-65
2021/01/08 11:29:59;;;;;;;1999.90;999.90;;;3.00;99.90;;;;;;5032798;28;20434;-63
2021/01/08 11:32:25;;;;;;;1999.90;999.90;;;3.00;99.90;;;;;;5033419;28;20193;-67
2021/01/08 11:34:50;;;;;;;1999.90;999.90;;;2.90;99.90;;;;;;5033452;28;20169;-67
2021/01/08 11:37:16;;;;;;;1999.90;999.90;;;3.00;99.90;;;;;;5032548;28;20587;-65
2021/01/08 11:39:42;;;;;;;1999.90;999.90;;;2.90;99.90;;;;;;5033127;28;20193;-65
2021/01/08 11:42:08;;;;;;;1999.90;999.90;;;2.80;99.90;;;;;;5033777;28;20184;-65
2021/01/08 11:44:34;;;;;;;1999.90;999.90;;;2.80;99.90;;;;;;5033543;28;20258;-65
2021/01/08 11:47:00;;;;;;;1999.90;999.90;;;2.90;99.90;;;;;;5032465;28;20736;-65
2021/01/08 11:49:25;;;;;;;1999.90;999.90;;;3.00;99.90;;;;;;5032326;28;20177;-65
2021/01/08 11:51:56;;;;;;;1999.90;999.90;;;3.00;99.90;;;;;;5032435;28;20208;-65
2021/01/08 11:54:22;;;;;;;1999.90;999.90;;;2.90;99.90;;;;;;5032218;28;20203;-65
2021/01/08 11:56:47;;;;;;;1999.90;999.90;;;3.00;99.90;;;;;;5032690;28;20606;-65
2021/01/08 11:59:13;;;;;;;1999.90;999.90;;;3.00;99.90;;;;;;5032280;28;20414;-65
2021/01/08 12:01:38;;;;;;;1999.90;999.90;;;3.10;99.90;;;;;;5032051;28;20258;-65
2021/01/08 12:04:04;;;;;;;1999.90;999.90;;;3.10;99.90;;;;;;5032437;28;20768;-65
2021/01/08 12:06:32;;;;;;;1999.90;999.90;;;3.10;99.90;;;;;;5032650;28;20195;-65
2021/01/08 12:09:00;;;;;;;1999.90;999.90;;;3.10;99.90;;;;;;5031095;28;20168;-65
2021/01/08 12:11:27;;;;;;;1999.90;999.90;;;3.10;99.90;;;;;;5032144;28;20207;-65
2021/01/08 12:13:53;;;;;;;1999.90;999.90;;;3.00;99.90;;;;;;5032114;28;20654;-65